sensor_id;sensor_type;location;lat;lon;timestamp;temperature;humidity
24730;DHT22;12832;52.392;13.066;2022-07-21T00:01:36;29.80;36.90
24730;DHT22;12832;52.392;13.066;2022-07-21T00:04:04;29.80;36.90
24730;DHT22;12832;52.392;13.066;2022-07-21T00:06:31;29.80;36.90
24730;DHT22;12832;52.392;13.066;2022-07-21T00:08:57;29.80;36.90
24730;DHT22;12832;52.392;13.066;2022-07-21T00:11:24;29.80;36.90
24730;DHT22;12832;52.392;13.066;2022-07-21T00:13:51;29.70;36.90
24730;DHT22;12832;52.392;13.066;2022-07-21T00:16:18;29.80;36.90
24730;DHT22;12832;52.392;13.066;2022-07-21T00:18:50;29.70;36.80
24730;DHT22;12832;52.392;13.066;2022-07-21T00:21:17;29.80;36.90
24730;DHT22;12832;52.392;13.066;2022-07-21T00:23:44;29.70;36.90
24730;DHT22;12832;52.392;13.066;2022-07-21T00:26:11;29.70;36.90
24730;DHT22;12832;52.392;13.066;2022-07-21T00:28:39;29.70;36.90
24730;DHT22;12832;52.392;13.066;2022-07-21T00:31:06;29.80;37.20
24730;DHT22;12832;52.392;13.066;2022-07-21T00:33:33;29.70;36.90
24730;DHT22;12832;52.392;13.066;2022-07-21T00:35:59;29.80;36.90
24730;DHT22;12832;52.392;13.066;2022-07-21T00:38:26;29.70;36.90
24730;DHT22;12832;52.392;13.066;2022-07-21T00:40:54;29.70;36.90
24730;DHT22;12832;52.392;13.066;2022-07-21T00:43:21;29.70;36.90
24730;DHT22;12832;52.392;13.066;2022-07-21T00:45:48;29.80;36.90
24730;DHT22;12832;52.392;13.066;2022-07-21T00:48:15;29.80;36.90
24730;DHT22;12832;52.392;13.066;2022-07-21T00:50:41;29.80;36.90
24730;DHT22;12832;52.392;13.066;2022-07-21T00:53:08;29.80;36.90
24730;DHT22;12832;52.392;13.066;2022-07-21T00:55:35;29.80;36.90
24730;DHT22;12832;52.392;13.066;2022-07-21T00:58:02;29.80;36.90
24730;DHT22;12832;52.392;13.066;2022-07-21T01:00:30;29.80;36.90
24730;DHT22;12832;52.392;13.066;2022-07-21T01:03:04;29.80;36.90
24730;DHT22;12832;52.392;13.066;2022-07-21T01:05:31;29.80;36.90
24730;DHT22;12832;52.392;13.066;2022-07-21T01:07:58;29.80;37.00
24730;DHT22;12832;52.392;13.066;2022-07-21T01:10:30;29.80;37.00
24730;DHT22;12832;52.392;13.066;2022-07-21T01:12:58;29.80;37.00
24730;DHT22;12832;52.392;13.066;2022-07-21T01:15:26;29.80;37.00
24730;DHT22;12832;52.392;13.066;2022-07-21T01:17:52;29.80;36.90
24730;DHT22;12832;52.392;13.066;2022-07-21T01:20:21;29.80;36.90
24730;DHT22;12832;52.392;13.066;2022-07-21T01:22:51;29.80;36.90
24730;DHT22;12832;52.392;13.066;2022-07-21T01:25:19;29.80;36.90
24730;DHT22;12832;52.392;13.066;2022-07-21T01:27:47;29.80;36.90
24730;DHT22;12832;52.392;13.066;2022-07-21T01:30:15;29.80;36.90
24730;DHT22;12832;52.392;13.066;2022-07-21T01:32:42;29.80;36.90
24730;DHT22;12832;52.392;13.066;2022-07-21T01:35:12;29.80;36.90
24730;DHT22;12832;52.392;13.066;2022-07-21T01:37:42;29.80;37.00
24730;DHT22;12832;52.392;13.066;2022-07-21T01:40:11;29.80;37.00
24730;DHT22;12832;52.392;13.066;2022-07-21T01:42:58;29.80;36.90
24730;DHT22;12832;52.392;13.066;2022-07-21T01:45:26;29.80;37.00
24730;DHT22;12832;52.392;13.066;2022-07-21T01:47:52;29.80;37.00
24730;DHT22;12832;52.392;13.066;2022-07-21T01:50:19;29.80;36.90
24730;DHT22;12832;52.392;13.066;2022-07-21T01:52:49;29.80;37.00
24730;DHT22;12832;52.392;13.066;2022-07-21T01:55:15;29.80;36.90
24730;DHT22;12832;52.392;13.066;2022-07-21T01:57:42;29.80;36.90
24730;DHT22;12832;52.392;13.066;2022-07-21T02:00:09;29.80;36.90
24730;DHT22;12832;52.392;13.066;2022-07-21T02:02:37;29.80;36.90
24730;DHT22;12832;52.392;13.066;2022-07-21T02:05:04;29.80;37.00
24730;DHT22;12832;52.392;13.066;2022-07-21T02:07:31;29.80;37.00
24730;DHT22;12832;52.392;13.066;2022-07-21T02:09:58;29.80;37.00
24730;DHT22;12832;52.392;13.066;2022-07-21T02:12:25;29.80;37.00
24730;DHT22;12832;52.392;13.066;2022-07-21T02:14:51;29.80;36.90
24730;DHT22;12832;52.392;13.066;2022-07-21T02:17:18;29.80;36.90
24730;DHT22;12832;52.392;13.066;2022-07-21T02:19:45;29.80;36.90
24730;DHT22;12832;52.392;13.066;2022-07-21T02:22:12;29.80;36.90
24730;DHT22;12832;52.392;13.066;2022-07-21T02:24:39;29.80;36.90
24730;DHT22;12832;52.392;13.066;2022-07-21T02:27:07;29.80;37.00
24730;DHT22;12832;52.392;13.066;2022-07-21T02:29:34;29.80;36.90
24730;DHT22;12832;52.392;13.066;2022-07-21T02:32:02;29.80;37.00
24730;DHT22;12832;52.392;13.066;2022-07-21T02:34:29;29.80;36.90
24730;DHT22;12832;52.392;13.066;2022-07-21T02:36:56;29.90;37.00
24730;DHT22;12832;52.392;13.066;2022-07-21T02:39:23;29.80;36.90
24730;DHT22;12832;52.392;13.066;2022-07-21T02:41:50;29.80;36.90
24730;DHT22;12832;52.392;13.066;2022-07-21T02:44:16;29.80;37.00
24730;DHT22;12832;52.392;13.066;2022-07-21T02:46:43;29.80;37.00
24730;DHT22;12832;52.392;13.066;2022-07-21T02:49:10;29.80;37.00
24730;DHT22;12832;52.392;13.066;2022-07-21T02:51:37;29.80;36.90
24730;DHT22;12832;52.392;13.066;2022-07-21T02:54:04;29.80;37.00
24730;DHT22;12832;52.392;13.066;2022-07-21T02:56:31;29.80;37.00
24730;DHT22;12832;52.392;13.066;2022-07-21T02:58:58;29.80;36.90
24730;DHT22;12832;52.392;13.066;2022-07-21T03:01:24;29.80;36.90
24730;DHT22;12832;52.392;13.066;2022-07-21T03:03:51;29.80;37.00
24730;DHT22;12832;52.392;13.066;2022-07-21T03:06:18;29.80;37.00
24730;DHT22;12832;52.392;13.066;2022-07-21T03:08:45;29.80;37.00
24730;DHT22;12832;52.392;13.066;2022-07-21T03:11:12;29.80;37.00
24730;DHT22;12832;52.392;13.066;2022-07-21T03:13:39;29.80;37.00
24730;DHT22;12832;52.392;13.066;2022-07-21T03:16:06;29.80;37.00
24730;DHT22;12832;52.392;13.066;2022-07-21T03:18:33;29.90;37.00
24730;DHT22;12832;52.392;13.066;2022-07-21T03:20:59;29.80;37.00
24730;DHT22;12832;52.392;13.066;2022-07-21T03:23:26;29.80;37.00
24730;DHT22;12832;52.392;13.066;2022-07-21T03:25:54;29.80;37.00
24730;DHT22;12832;52.392;13.066;2022-07-21T03:28:21;29.80;37.00
24730;DHT22;12832;52.392;13.066;2022-07-21T03:30:48;29.90;37.00
24730;DHT22;12832;52.392;13.066;2022-07-21T03:33:15;29.80;37.00
24730;DHT22;12832;52.392;13.066;2022-07-21T03:35:42;29.80;37.00
24730;DHT22;12832;52.392;13.066;2022-07-21T03:38:09;29.80;37.00
24730;DHT22;12832;52.392;13.066;2022-07-21T03:40:37;29.90;37.00
24730;DHT22;12832;52.392;13.066;2022-07-21T03:43:05;29.80;37.00
24730;DHT22;12832;52.392;13.066;2022-07-21T03:45:34;29.80;37.00
24730;DHT22;12832;52.392;13.066;2022-07-21T03:48:03;29.80;37.20
24730;DHT22;12832;52.392;13.066;2022-07-21T03:50:31;29.90;37.10
24730;DHT22;12832;52.392;13.066;2022-07-21T03:52:58;29.90;37.00
24730;DHT22;12832;52.392;13.066;2022-07-21T03:55:26;29.80;37.00
24730;DHT22;12832;52.392;13.066;2022-07-21T03:57:56;29.80;37.00
24730;DHT22;12832;52.392;13.066;2022-07-21T04:00:29;29.90;37.10
24730;DHT22;12832;52.392;13.066;2022-07-21T04:02:56;29.80;37.00
24730;DHT22;12832;52.392;13.066;2022-07-21T04:05:24;29.90;37.10
24730;DHT22;12832;52.392;13.066;2022-07-21T04:07:51;29.90;37.10
24730;DHT22;12832;52.392;13.066;2022-07-21T04:10:22;29.90;37.10
24730;DHT22;12832;52.392;13.066;2022-07-21T04:12:51;29.80;37.10
24730;DHT22;12832;52.392;13.066;2022-07-21T04:15:19;29.90;37.20
24730;DHT22;12832;52.392;13.066;2022-07-21T04:17:46;29.80;37.80
24730;DHT22;12832;52.392;13.066;2022-07-21T04:20:14;29.90;37.20
24730;DHT22;12832;52.392;13.066;2022-07-21T04:22:43;29.90;37.10
24730;DHT22;12832;52.392;13.066;2022-07-21T04:25:11;29.90;37.10
24730;DHT22;12832;52.392;13.066;2022-07-21T04:27:39;29.90;37.10
24730;DHT22;12832;52.392;13.066;2022-07-21T04:30:08;29.90;37.70
24730;DHT22;12832;52.392;13.066;2022-07-21T04:32:35;29.90;38.40
24730;DHT22;12832;52.392;13.066;2022-07-21T04:35:05;29.90;37.70
24730;DHT22;12832;52.392;13.066;2022-07-21T04:37:32;29.90;37.90
24730;DHT22;12832;52.392;13.066;2022-07-21T04:40:00;29.90;38.10
24730;DHT22;12832;52.392;13.066;2022-07-21T04:42:27;29.90;38.00
24730;DHT22;12832;52.392;13.066;2022-07-21T04:44:54;29.90;38.30
24730;DHT22;12832;52.392;13.066;2022-07-21T04:47:21;29.90;38.80
24730;DHT22;12832;52.392;13.066;2022-07-21T04:49:48;29.90;39.50
24730;DHT22;12832;52.392;13.066;2022-07-21T04:52:15;29.90;39.70
24730;DHT22;12832;52.392;13.066;2022-07-21T04:54:41;29.90;39.90
24730;DHT22;12832;52.392;13.066;2022-07-21T04:57:08;29.90;40.60
24730;DHT22;12832;52.392;13.066;2022-07-21T04:59:35;29.80;40.40
24730;DHT22;12832;52.392;13.066;2022-07-21T05:02:04;29.80;40.60
24730;DHT22;12832;52.392;13.066;2022-07-21T05:04:31;29.80;40.90
24730;DHT22;12832;52.392;13.066;2022-07-21T05:06:59;29.70;41.10
24730;DHT22;12832;52.392;13.066;2022-07-21T05:09:25;29.70;40.60
24730;DHT22;12832;52.392;13.066;2022-07-21T05:11:52;29.70;40.10
24730;DHT22;12832;52.392;13.066;2022-07-21T05:14:19;29.70;40.40
24730;DHT22;12832;52.392;13.066;2022-07-21T05:16:46;29.70;39.90
24730;DHT22;12832;52.392;13.066;2022-07-21T05:19:14;29.70;39.90
24730;DHT22;12832;52.392;13.066;2022-07-21T05:21:47;29.80;40.00
24730;DHT22;12832;52.392;13.066;2022-07-21T05:24:14;29.70;40.70
24730;DHT22;12832;52.392;13.066;2022-07-21T05:26:41;29.80;41.50
24730;DHT22;12832;52.392;13.066;2022-07-21T05:29:08;29.70;41.60
24730;DHT22;12832;52.392;13.066;2022-07-21T05:31:35;29.70;41.80
24730;DHT22;12832;52.392;13.066;2022-07-21T05:34:02;29.70;41.70
24730;DHT22;12832;52.392;13.066;2022-07-21T05:36:29;29.70;41.60
24730;DHT22;12832;52.392;13.066;2022-07-21T05:38:56;29.70;40.80
24730;DHT22;12832;52.392;13.066;2022-07-21T05:41:23;29.70;40.50
24730;DHT22;12832;52.392;13.066;2022-07-21T05:43:50;29.60;40.20
24730;DHT22;12832;52.392;13.066;2022-07-21T05:46:17;29.60;40.30
24730;DHT22;12832;52.392;13.066;2022-07-21T05:48:44;29.70;40.30
24730;DHT22;12832;52.392;13.066;2022-07-21T05:51:10;29.60;40.30
24730;DHT22;12832;52.392;13.066;2022-07-21T05:53:44;29.60;40.30
24730;DHT22;12832;52.392;13.066;2022-07-21T05:56:11;29.60;40.20
24730;DHT22;12832;52.392;13.066;2022-07-21T05:58:38;29.60;40.30
24730;DHT22;12832;52.392;13.066;2022-07-21T06:01:05;29.60;40.30
24730;DHT22;12832;52.392;13.066;2022-07-21T06:03:36;29.60;40.90
24730;DHT22;12832;52.392;13.066;2022-07-21T06:06:04;29.60;41.30
24730;DHT22;12832;52.392;13.066;2022-07-21T06:08:32;29.60;41.60
24730;DHT22;12832;52.392;13.066;2022-07-21T06:10:59;29.60;41.20
24730;DHT22;12832;52.392;13.066;2022-07-21T06:13:26;29.60;41.50
24730;DHT22;12832;52.392;13.066;2022-07-21T06:15:53;29.60;41.80
24730;DHT22;12832;52.392;13.066;2022-07-21T06:18:19;29.60;42.00
24730;DHT22;12832;52.392;13.066;2022-07-21T06:20:48;29.60;42.00
24730;DHT22;12832;52.392;13.066;2022-07-21T06:23:15;29.50;41.90
24730;DHT22;12832;52.392;13.066;2022-07-21T06:25:43;29.50;41.30
24730;DHT22;12832;52.392;13.066;2022-07-21T06:28:10;29.50;41.50
24730;DHT22;12832;52.392;13.066;2022-07-21T06:30:37;29.50;42.00
24730;DHT22;12832;52.392;13.066;2022-07-21T06:33:04;29.50;41.50
24730;DHT22;12832;52.392;13.066;2022-07-21T06:35:31;29.50;41.20
24730;DHT22;12832;52.392;13.066;2022-07-21T06:37:58;29.50;41.00
24730;DHT22;12832;52.392;13.066;2022-07-21T06:40:25;29.50;40.90
24730;DHT22;12832;52.392;13.066;2022-07-21T06:42:52;29.50;41.00
24730;DHT22;12832;52.392;13.066;2022-07-21T06:45:39;29.50;41.10
24730;DHT22;12832;52.392;13.066;2022-07-21T06:48:07;29.50;41.10
24730;DHT22;12832;52.392;13.066;2022-07-21T06:50:35;29.40;41.70
24730;DHT22;12832;52.392;13.066;2022-07-21T06:53:02;29.50;41.20
24730;DHT22;12832;52.392;13.066;2022-07-21T06:55:30;29.50;41.20
24730;DHT22;12832;52.392;13.066;2022-07-21T06:57:57;29.50;41.20
24730;DHT22;12832;52.392;13.066;2022-07-21T07:00:24;29.40;41.10
24730;DHT22;12832;52.392;13.066;2022-07-21T07:02:51;29.40;41.10
24730;DHT22;12832;52.392;13.066;2022-07-21T07:05:17;29.40;41.20
24730;DHT22;12832;52.392;13.066;2022-07-21T07:07:44;29.40;41.40
24730;DHT22;12832;52.392;13.066;2022-07-21T07:10:14;29.40;41.40
24730;DHT22;12832;52.392;13.066;2022-07-21T07:12:41;29.40;41.40
24730;DHT22;12832;52.392;13.066;2022-07-21T07:15:28;29.40;41.40
24730;DHT22;12832;52.392;13.066;2022-07-21T07:17:55;29.40;41.50
24730;DHT22;12832;52.392;13.066;2022-07-21T07:20:22;29.40;41.50
24730;DHT22;12832;52.392;13.066;2022-07-21T07:22:49;29.40;41.50
24730;DHT22;12832;52.392;13.066;2022-07-21T07:25:16;29.40;41.50
24730;DHT22;12832;52.392;13.066;2022-07-21T07:27:48;29.40;41.60
24730;DHT22;12832;52.392;13.066;2022-07-21T07:30:17;29.40;41.60
24730;DHT22;12832;52.392;13.066;2022-07-21T07:32:45;29.40;41.70
24730;DHT22;12832;52.392;13.066;2022-07-21T07:35:14;29.40;41.70
24730;DHT22;12832;52.392;13.066;2022-07-21T07:37:44;29.40;41.80
24730;DHT22;12832;52.392;13.066;2022-07-21T07:40:15;29.40;41.90
24730;DHT22;12832;52.392;13.066;2022-07-21T07:42:43;29.40;41.80
24730;DHT22;12832;52.392;13.066;2022-07-21T07:45:10;29.40;42.00
24730;DHT22;12832;52.392;13.066;2022-07-21T07:47:38;29.30;41.90
24730;DHT22;12832;52.392;13.066;2022-07-21T07:50:07;29.40;42.10
24730;DHT22;12832;52.392;13.066;2022-07-21T07:52:36;29.40;42.10
24730;DHT22;12832;52.392;13.066;2022-07-21T07:55:04;29.40;42.20
24730;DHT22;12832;52.392;13.066;2022-07-21T07:57:35;29.40;42.20
24730;DHT22;12832;52.392;13.066;2022-07-21T08:00:05;29.30;42.20
24730;DHT22;12832;52.392;13.066;2022-07-21T08:02:53;29.40;42.30
24730;DHT22;12832;52.392;13.066;2022-07-21T08:05:19;29.40;42.30
24730;DHT22;12832;52.392;13.066;2022-07-21T08:07:46;29.40;42.20
24730;DHT22;12832;52.392;13.066;2022-07-21T08:10:13;29.30;42.20
24730;DHT22;12832;52.392;13.066;2022-07-21T08:13:00;29.40;42.30
24730;DHT22;12832;52.392;13.066;2022-07-21T08:15:33;29.40;42.30
24730;DHT22;12832;52.392;13.066;2022-07-21T08:18:01;29.40;42.40
24730;DHT22;12832;52.392;13.066;2022-07-21T08:20:28;29.30;42.40
24730;DHT22;12832;52.392;13.066;2022-07-21T08:22:54;29.40;42.50
24730;DHT22;12832;52.392;13.066;2022-07-21T08:25:21;29.40;42.50
24730;DHT22;12832;52.392;13.066;2022-07-21T08:27:48;29.40;42.50
24730;DHT22;12832;52.392;13.066;2022-07-21T08:30:15;29.40;42.50
24730;DHT22;12832;52.392;13.066;2022-07-21T08:32:42;29.40;42.50
24730;DHT22;12832;52.392;13.066;2022-07-21T08:35:09;29.40;42.40
24730;DHT22;12832;52.392;13.066;2022-07-21T08:37:37;29.40;42.50
24730;DHT22;12832;52.392;13.066;2022-07-21T08:40:07;29.40;42.50
24730;DHT22;12832;52.392;13.066;2022-07-21T08:42:34;29.40;42.40
24730;DHT22;12832;52.392;13.066;2022-07-21T08:45:03;29.40;42.50
24730;DHT22;12832;52.392;13.066;2022-07-21T08:47:30;29.40;42.50
24730;DHT22;12832;52.392;13.066;2022-07-21T08:49:58;29.40;42.50
24730;DHT22;12832;52.392;13.066;2022-07-21T08:52:25;29.40;42.50
24730;DHT22;12832;52.392;13.066;2022-07-21T08:54:53;29.40;42.50
24730;DHT22;12832;52.392;13.066;2022-07-21T08:57:22;29.30;42.50
24730;DHT22;12832;52.392;13.066;2022-07-21T08:59:49;29.40;42.60
24730;DHT22;12832;52.392;13.066;2022-07-21T09:02:30;29.40;42.50
24730;DHT22;12832;52.392;13.066;2022-07-21T09:04:58;29.30;42.60
24730;DHT22;12832;52.392;13.066;2022-07-21T09:07:25;29.40;42.60
24730;DHT22;12832;52.392;13.066;2022-07-21T09:09:57;29.40;42.60
24730;DHT22;12832;52.392;13.066;2022-07-21T09:12:25;29.40;42.60
24730;DHT22;12832;52.392;13.066;2022-07-21T09:14:54;29.40;42.60
24730;DHT22;12832;52.392;13.066;2022-07-21T09:17:38;29.40;42.60
24730;DHT22;12832;52.392;13.066;2022-07-21T09:20:25;29.40;42.60
24730;DHT22;12832;52.392;13.066;2022-07-21T09:23:03;29.40;42.60
24730;DHT22;12832;52.392;13.066;2022-07-21T09:25:41;29.40;42.60
24730;DHT22;12832;52.392;13.066;2022-07-21T09:30:56;29.40;42.70
24730;DHT22;12832;52.392;13.066;2022-07-21T09:33:28;29.40;42.70
24730;DHT22;12832;52.392;13.066;2022-07-21T09:36:10;29.40;42.70
24730;DHT22;12832;52.392;13.066;2022-07-21T09:38:44;29.40;42.70
24730;DHT22;12832;52.392;13.066;2022-07-21T09:43:53;29.40;42.70
24730;DHT22;12832;52.392;13.066;2022-07-21T09:46:24;29.40;42.60
24730;DHT22;12832;52.392;13.066;2022-07-21T09:48:53;29.40;42.60
24730;DHT22;12832;52.392;13.066;2022-07-21T09:51:40;29.40;42.70
24730;DHT22;12832;52.392;13.066;2022-07-21T09:54:11;29.40;42.70
24730;DHT22;12832;52.392;13.066;2022-07-21T09:56:41;29.40;42.70
24730;DHT22;12832;52.392;13.066;2022-07-21T09:59:09;29.40;42.70
24730;DHT22;12832;52.392;13.066;2022-07-21T10:01:37;29.40;42.70
24730;DHT22;12832;52.392;13.066;2022-07-21T10:04:06;29.40;42.70
24730;DHT22;12832;52.392;13.066;2022-07-21T10:06:38;29.40;42.70
24730;DHT22;12832;52.392;13.066;2022-07-21T10:09:07;29.40;42.70
24730;DHT22;12832;52.392;13.066;2022-07-21T10:11:39;29.40;42.80
24730;DHT22;12832;52.392;13.066;2022-07-21T10:14:11;29.40;42.80
24730;DHT22;12832;52.392;13.066;2022-07-21T10:16:39;29.40;42.80
24730;DHT22;12832;52.392;13.066;2022-07-21T10:19:27;29.40;42.80
24730;DHT22;12832;52.392;13.066;2022-07-21T10:24:33;29.40;42.80
24730;DHT22;12832;52.392;13.066;2022-07-21T10:27:05;29.40;42.80
24730;DHT22;12832;52.392;13.066;2022-07-21T10:32:19;29.50;43.10
24730;DHT22;12832;52.392;13.066;2022-07-21T10:34:48;29.50;43.40
24730;DHT22;12832;52.392;13.066;2022-07-21T10:40:33;29.60;45.20
24730;DHT22;12832;52.392;13.066;2022-07-21T10:45:37;29.70;44.30
24730;DHT22;12832;52.392;13.066;2022-07-21T10:48:48;29.70;44.00
24730;DHT22;12832;52.392;13.066;2022-07-21T10:50:59;29.70;44.10
24730;DHT22;12832;52.392;13.066;2022-07-21T10:53:25;29.70;43.60
24730;DHT22;12832;52.392;13.066;2022-07-21T10:55:54;29.70;43.90
24730;DHT22;12832;52.392;13.066;2022-07-21T10:58:26;29.70;43.20
24730;DHT22;12832;52.392;13.066;2022-07-21T11:03:28;29.70;43.20
24730;DHT22;12832;52.392;13.066;2022-07-21T11:08:44;29.70;43.20
24730;DHT22;12832;52.392;13.066;2022-07-21T11:11:26;29.60;43.10
24730;DHT22;12832;52.392;13.066;2022-07-21T11:22:01;29.70;43.30
24730;DHT22;12832;52.392;13.066;2022-07-21T11:24:29;29.70;43.30
24730;DHT22;12832;52.392;13.066;2022-07-21T11:29:29;29.60;43.20
24730;DHT22;12832;52.392;13.066;2022-07-21T11:31:57;29.60;43.20
24730;DHT22;12832;52.392;13.066;2022-07-21T11:34:25;29.60;43.30
24730;DHT22;12832;52.392;13.066;2022-07-21T11:37:02;29.60;43.30
24730;DHT22;12832;52.392;13.066;2022-07-21T11:39:49;29.60;43.30
24730;DHT22;12832;52.392;13.066;2022-07-21T11:42:16;29.60;43.30
24730;DHT22;12832;52.392;13.066;2022-07-21T11:44:43;29.60;43.40
24730;DHT22;12832;52.392;13.066;2022-07-21T11:47:13;29.60;43.40
24730;DHT22;12832;52.392;13.066;2022-07-21T11:49:41;29.60;44.20
24730;DHT22;12832;52.392;13.066;2022-07-21T11:52:14;29.60;44.40
24730;DHT22;12832;52.392;13.066;2022-07-21T11:54:49;29.60;44.00
24730;DHT22;12832;52.392;13.066;2022-07-21T11:57:18;29.70;43.80
24730;DHT22;12832;52.392;13.066;2022-07-21T11:59:46;29.70;43.50
24730;DHT22;12832;52.392;13.066;2022-07-21T12:02:24;29.70;43.40
24730;DHT22;12832;52.392;13.066;2022-07-21T12:04:59;29.70;43.40
24730;DHT22;12832;52.392;13.066;2022-07-21T12:07:30;29.70;43.60
24730;DHT22;12832;52.392;13.066;2022-07-21T12:09:59;29.70;43.60
24730;DHT22;12832;52.392;13.066;2022-07-21T12:17:47;29.70;44.00
24730;DHT22;12832;52.392;13.066;2022-07-21T12:20:23;29.70;44.00
24730;DHT22;12832;52.392;13.066;2022-07-21T12:22:50;29.70;44.20
24730;DHT22;12832;52.392;13.066;2022-07-21T12:25:29;29.70;44.30
24730;DHT22;12832;52.392;13.066;2022-07-21T12:27:56;29.70;44.30
24730;DHT22;12832;52.392;13.066;2022-07-21T12:33:16;29.70;44.50
24730;DHT22;12832;52.392;13.066;2022-07-21T12:36:01;29.70;44.60
24730;DHT22;12832;52.392;13.066;2022-07-21T12:38:40;29.70;44.70
24730;DHT22;12832;52.392;13.066;2022-07-21T12:41:09;29.70;44.90
24730;DHT22;12832;52.392;13.066;2022-07-21T12:43:58;29.70;45.00
24730;DHT22;12832;52.392;13.066;2022-07-21T12:46:31;29.70;45.20
24730;DHT22;12832;52.392;13.066;2022-07-21T12:49:06;29.70;45.40
24730;DHT22;12832;52.392;13.066;2022-07-21T12:51:39;29.70;45.60
24730;DHT22;12832;52.392;13.066;2022-07-21T12:54:06;29.70;45.70
24730;DHT22;12832;52.392;13.066;2022-07-21T12:56:34;29.70;45.80
24730;DHT22;12832;52.392;13.066;2022-07-21T12:59:03;29.60;45.90
24730;DHT22;12832;52.392;13.066;2022-07-21T13:01:32;29.70;46.10
24730;DHT22;12832;52.392;13.066;2022-07-21T13:04:01;29.70;46.40
24730;DHT22;12832;52.392;13.066;2022-07-21T13:06:28;29.70;46.50
24730;DHT22;12832;52.392;13.066;2022-07-21T13:08:54;29.70;46.70
24730;DHT22;12832;52.392;13.066;2022-07-21T13:11:22;29.60;46.70
24730;DHT22;12832;52.392;13.066;2022-07-21T13:13:50;29.70;46.80
24730;DHT22;12832;52.392;13.066;2022-07-21T13:16:19;29.70;46.80
24730;DHT22;12832;52.392;13.066;2022-07-21T13:18:49;29.70;46.80
24730;DHT22;12832;52.392;13.066;2022-07-21T13:21:17;29.70;46.80
24730;DHT22;12832;52.392;13.066;2022-07-21T13:23:44;29.70;46.90
24730;DHT22;12832;52.392;13.066;2022-07-21T13:26:11;29.70;46.80
24730;DHT22;12832;52.392;13.066;2022-07-21T13:28:38;29.60;46.80
24730;DHT22;12832;52.392;13.066;2022-07-21T13:31:06;29.70;46.90
24730;DHT22;12832;52.392;13.066;2022-07-21T13:33:35;29.70;46.90
24730;DHT22;12832;52.392;13.066;2022-07-21T13:36:04;29.70;46.80
24730;DHT22;12832;52.392;13.066;2022-07-21T13:38:32;29.70;46.80
24730;DHT22;12832;52.392;13.066;2022-07-21T13:40:59;29.60;46.70
24730;DHT22;12832;52.392;13.066;2022-07-21T13:43:46;29.70;46.70
24730;DHT22;12832;52.392;13.066;2022-07-21T13:46:13;29.70;46.80
24730;DHT22;12832;52.392;13.066;2022-07-21T13:48:40;29.70;46.60
24730;DHT22;12832;52.392;13.066;2022-07-21T13:51:15;29.60;46.60
24730;DHT22;12832;52.392;13.066;2022-07-21T13:53:46;29.70;46.60
24730;DHT22;12832;52.392;13.066;2022-07-21T13:56:15;29.60;46.60
24730;DHT22;12832;52.392;13.066;2022-07-21T13:58:44;29.70;46.70
24730;DHT22;12832;52.392;13.066;2022-07-21T14:01:12;29.70;46.70
24730;DHT22;12832;52.392;13.066;2022-07-21T14:03:40;29.70;46.60
24730;DHT22;12832;52.392;13.066;2022-07-21T14:06:07;29.70;46.70
24730;DHT22;12832;52.392;13.066;2022-07-21T14:08:34;29.60;46.70
24730;DHT22;12832;52.392;13.066;2022-07-21T14:11:02;29.70;46.70
24730;DHT22;12832;52.392;13.066;2022-07-21T14:13:29;29.70;46.80
24730;DHT22;12832;52.392;13.066;2022-07-21T14:15:56;29.60;46.70
24730;DHT22;12832;52.392;13.066;2022-07-21T14:18:23;29.60;46.70
24730;DHT22;12832;52.392;13.066;2022-07-21T14:20:50;29.70;47.50
24730;DHT22;12832;52.392;13.066;2022-07-21T14:23:20;29.70;46.80
24730;DHT22;12832;52.392;13.066;2022-07-21T14:25:49;29.70;46.80
24730;DHT22;12832;52.392;13.066;2022-07-21T14:28:16;29.70;47.00
24730;DHT22;12832;52.392;13.066;2022-07-21T14:30:43;29.60;46.70
24730;DHT22;12832;52.392;13.066;2022-07-21T14:33:12;29.70;47.10
24730;DHT22;12832;52.392;13.066;2022-07-21T14:35:38;29.70;46.60
24730;DHT22;12832;52.392;13.066;2022-07-21T14:38:06;29.70;46.90
24730;DHT22;12832;52.392;13.066;2022-07-21T14:40:32;29.60;46.80
24730;DHT22;12832;52.392;13.066;2022-07-21T14:43:00;29.70;46.90
24730;DHT22;12832;52.392;13.066;2022-07-21T14:45:27;29.70;46.90
24730;DHT22;12832;52.392;13.066;2022-07-21T14:47:56;29.60;46.80
24730;DHT22;12832;52.392;13.066;2022-07-21T14:50:24;29.70;46.90
24730;DHT22;12832;52.392;13.066;2022-07-21T14:52:54;29.70;46.90
24730;DHT22;12832;52.392;13.066;2022-07-21T14:55:22;29.70;46.90
24730;DHT22;12832;52.392;13.066;2022-07-21T14:57:52;29.70;46.90
24730;DHT22;12832;52.392;13.066;2022-07-21T15:00:20;29.70;46.90
24730;DHT22;12832;52.392;13.066;2022-07-21T15:02:47;29.70;47.00
24730;DHT22;12832;52.392;13.066;2022-07-21T15:05:14;29.70;47.00
24730;DHT22;12832;52.392;13.066;2022-07-21T15:07:41;29.70;47.00
24730;DHT22;12832;52.392;13.066;2022-07-21T15:10:08;29.60;46.90
24730;DHT22;12832;52.392;13.066;2022-07-21T15:12:35;29.60;47.00
24730;DHT22;12832;52.392;13.066;2022-07-21T15:15:03;29.60;47.00
24730;DHT22;12832;52.392;13.066;2022-07-21T15:17:30;29.70;47.00
24730;DHT22;12832;52.392;13.066;2022-07-21T15:19:58;29.70;47.00
24730;DHT22;12832;52.392;13.066;2022-07-21T15:22:27;29.70;47.10
24730;DHT22;12832;52.392;13.066;2022-07-21T15:24:59;29.60;47.00
24730;DHT22;12832;52.392;13.066;2022-07-21T15:27:26;29.70;47.10
24730;DHT22;12832;52.392;13.066;2022-07-21T15:29:53;29.70;47.20
24730;DHT22;12832;52.392;13.066;2022-07-21T15:32:20;29.70;47.20
24730;DHT22;12832;52.392;13.066;2022-07-21T15:34:47;29.70;47.20
24730;DHT22;12832;52.392;13.066;2022-07-21T15:37:14;29.70;47.20
24730;DHT22;12832;52.392;13.066;2022-07-21T15:39:41;29.70;47.20
24730;DHT22;12832;52.392;13.066;2022-07-21T15:42:10;29.70;47.30
24730;DHT22;12832;52.392;13.066;2022-07-21T15:44:37;29.60;47.20
24730;DHT22;12832;52.392;13.066;2022-07-21T15:47:06;29.70;47.40
24730;DHT22;12832;52.392;13.066;2022-07-21T15:49:34;29.70;47.40
24730;DHT22;12832;52.392;13.066;2022-07-21T15:52:01;29.70;47.50
24730;DHT22;12832;52.392;13.066;2022-07-21T15:54:29;29.70;47.40
24730;DHT22;12832;52.392;13.066;2022-07-21T15:57:16;29.70;47.50
24730;DHT22;12832;52.392;13.066;2022-07-21T15:59:43;29.70;47.50
24730;DHT22;12832;52.392;13.066;2022-07-21T16:02:13;29.70;47.60
24730;DHT22;12832;52.392;13.066;2022-07-21T16:04:41;29.70;47.60
24730;DHT22;12832;52.392;13.066;2022-07-21T16:07:09;29.70;47.70